Grand Rivers, Kentucky
Current Conditions -  °F | °C
As of 9:35 AM on Thursday 30 Oct 2014 (Local Time) from K5M9 Reporting Station
Clear Clear  
Wind Chill: 47°   Ceiling: Unl
Heat Index: 49°   Visibility: 10mi
Dew Point: 39°   Wind: 6mph
Humidity: 68%   Direction: 120°ESE
Pressure: 30.18"   Gusts: NA
Location:  37°N, 88.23°W
Report Text: K5M9 301435Z AUTO 12005KT 10SM CLR 10/04 A3018 RMK AO2 T00960040
Loading
Personal Weather Stations






























Interactive Weather Map
Tropical Storm Tracking
New forecast layout! Learn more

10-Day Weather Forecast

Advertisements
Track Severe Weather on mobile